Time;durP1;ratioP1;P1;durP2;ratioP2;P2;SDS_P1;SDS_P2;PMS_P1;PMS_P2;Temp;Humidity;BMP_temperature;BMP_pressure;BME280_temperature;BME280_humidity;BME280_pressure;Samples;Min_cycle;Max_cycle;Signal;HPM_P1;HPM_P2
2021/09/14 00:01:32;;;;;;;3.90;2.53;;;;;;;;;;5020989;28;20037;-80
2021/09/14 00:03:59;;;;;;;4.50;2.20;;;;;;;;;;5047540;28;20398;-80
2021/09/14 00:06:26;;;;;;;2.88;2.67;;;;;;;;;;5028452;28;20033;-80
2021/09/14 00:08:52;;;;;;;2.88;2.67;;;;;;;;;;5033064;28;20048;-80
2021/09/14 00:11:19;;;;;;;3.42;3.22;;;;;;;;;;5026597;28;20514;-80
2021/09/14 00:13:46;;;;;;;3.42;3.22;;;;;;;;;;5028199;28;20115;-80
2021/09/14 00:16:13;;;;;;;2.88;2.70;;;;;;;;;;5032106;28;20045;-80
2021/09/14 00:18:39;;;;;;;2.85;2.75;;;;;;;;;;5027772;28;20133;-80
2021/09/14 00:21:06;;;;;;;3.03;2.70;;;;;;;;;;5018733;28;20057;-80
2021/09/14 00:23:33;;;;;;;2.92;2.83;;;;;;;;;;5024546;28;20049;-80
2021/09/14 00:26:00;;;;;;;9.23;3.03;;;;;;;;;;5050997;28;20049;-80
2021/09/14 00:28:28;;;;;;;2.33;2.22;;;;;;;;;;5030033;28;20037;-80
2021/09/14 00:30:55;;;;;;;2.55;2.42;;;;;;;;;;5026665;28;20037;-80
2021/09/14 00:33:21;;;;;;;2.33;2.22;;;;;;;;;;5031029;28;20093;-80
2021/09/14 00:35:48;;;;;;;3.30;3.20;;;;;;;;;;5013801;28;20037;-80
2021/09/14 00:38:15;;;;;;;2.65;2.45;;;;;;;;;;5030896;28;20421;-80
2021/09/14 00:40:41;;;;;;;2.90;2.70;;;;;;;;;;5031073;28;20107;-80
2021/09/14 00:43:08;;;;;;;2.25;2.15;;;;;;;;;;5030430;28;20034;-80
2021/09/14 00:45:35;;;;;;;2.88;2.67;;;;;;;;;;5028138;28;20033;-80
2021/09/14 00:48:02;;;;;;;2.92;2.72;;;;;;;;;;5030810;28;20474;-80
2021/09/14 00:50:29;;;;;;;2.83;2.78;;;;;;;;;;5043545;28;20096;-80
2021/09/14 00:52:56;;;;;;;2.95;2.85;;;;;;;;;;5030671;28;20757;-80
2021/09/14 00:55:23;;;;;;;3.30;3.10;;;;;;;;;;5029428;28;20385;-80
2021/09/14 00:57:50;;;;;;;3.42;3.33;;;;;;;;;;5058902;28;20292;-80
2021/09/14 01:00:20;;;;;;;3.20;3.10;;;;;;;;;;5032022;28;20053;-80
2021/09/14 01:02:48;;;;;;;2.70;2.60;;;;;;;;;;5029463;28;20072;-80
2021/09/14 01:05:15;;;;;;;3.20;3.10;;;;;;;;;;5030722;28;20045;-80
2021/09/14 01:07:42;;;;;;;5.13;3.53;;;;;;;;;;5029065;28;20033;-80
2021/09/14 01:10:13;;;;;;;3.67;3.47;;;;;;;;;;5026207;28;20045;-80
2021/09/14 01:12:39;;;;;;;3.13;2.92;;;;;;;;;;5026258;28;20374;-80
2021/09/14 01:15:07;;;;;;;3.50;3.33;;;;;;;;;;5029063;28;20041;-80
2021/09/14 01:17:33;;;;;;;4.07;3.08;;;;;;;;;;5029400;28;20133;-80
2021/09/14 01:20:00;;;;;;;3.70;3.60;;;;;;;;;;5021010;28;20050;-80
2021/09/14 01:22:28;;;;;;;3.42;3.22;;;;;;;;;;5033845;28;20050;-80
2021/09/14 01:24:54;;;;;;;3.45;3.35;;;;;;;;;;5030563;28;20069;-80
2021/09/14 01:27:21;;;;;;;3.30;3.00;;;;;;;;;;5026799;28;20037;-80
2021/09/14 01:32:33;;;;;;;3.42;3.33;;;;;;;;;;5061940;28;20693;-80
2021/09/14 01:35:13;;;;;;;3.53;3.42;;;;;;;;;;5027606;28;20038;-80
2021/09/14 01:37:40;;;;;;;3.72;3.45;;;;;;;;;;5028451;28;20056;-80
2021/09/14 01:40:07;;;;;;;3.33;3.22;;;;;;;;;;5029668;28;20063;-80
2021/09/14 01:42:34;;;;;;;3.92;3.63;;;;;;;;;;5024205;28;20034;-80
2021/09/14 01:45:01;;;;;;;3.88;3.65;;;;;;;;;;5044321;28;20072;-80
2021/09/14 01:47:28;;;;;;;3.28;3.08;;;;;;;;;;5061052;28;20051;-80
2021/09/14 01:49:56;;;;;;;3.50;3.40;;;;;;;;;;5027380;28;20041;-80
2021/09/14 01:52:25;;;;;;;3.63;3.45;;;;;;;;;;5030046;28;20052;-80
2021/09/14 01:54:52;;;;;;;3.38;3.28;;;;;;;;;;5028645;28;20053;-80
2021/09/14 01:57:22;;;;;;;3.92;3.78;;;;;;;;;;5015933;28;20113;-80
2021/09/14 01:59:52;;;;;;;3.33;3.22;;;;;;;;;;5027600;28;20128;-80
2021/09/14 02:05:06;;;;;;;3.80;3.70;;;;;;;;;;5030819;28;20047;-80
2021/09/14 02:59:56;;;;;;;6.22;5.57;;;;;;;;;;5010584;28;20054;-80
2021/09/14 03:02:23;;;;;;;4.57;4.47;;;;;;;;;;5010175;28;20488;-80
2021/09/14 03:04:50;;;;;;;4.53;4.22;;;;;;;;;;5009233;28;20154;-80
2021/09/14 03:07:17;;;;;;;4.97;4.88;;;;;;;;;;5009290;28;20046;-80
2021/09/14 03:09:43;;;;;;;4.35;4.07;;;;;;;;;;4993547;28;20114;-79
2021/09/14 03:12:10;;;;;;;4.32;4.22;;;;;;;;;;5008141;28;20281;-79
2021/09/14 03:14:37;;;;;;;4.28;3.95;;;;;;;;;;5011001;28;20073;-80
2021/09/14 03:17:04;;;;;;;4.45;4.35;;;;;;;;;;5027967;28;20100;-80
2021/09/14 03:19:31;;;;;;;3.63;3.38;;;;;;;;;;5038883;28;20080;-80
2021/09/14 03:21:58;;;;;;;4.65;4.25;;;;;;;;;;5028767;28;20536;-80
2021/09/14 03:24:25;;;;;;;4.65;4.50;;;;;;;;;;5029727;28;20064;-80
2021/09/14 03:26:52;;;;;;;4.78;4.45;;;;;;;;;;5012782;28;20057;-80
2021/09/14 03:29:20;;;;;;;4.13;4.03;;;;;;;;;;5046861;28;20038;-80
2021/09/14 03:31:47;;;;;;;3.72;3.55;;;;;;;;;;5036752;28;20045;-80
2021/09/14 03:34:13;;;;;;;3.95;3.85;;;;;;;;;;5027181;28;20092;-80
2021/09/14 03:36:40;;;;;;;4.60;4.40;;;;;;;;;;5027657;28;20057;-80
2021/09/14 03:39:07;;;;;;;4.82;4.63;;;;;;;;;;5033355;28;20041;-79
2021/09/14 03:41:34;;;;;;;3.85;3.63;;;;;;;;;;5061756;28;20096;-79
2021/09/14 03:44:00;;;;;;;3.97;3.78;;;;;;;;;;5030032;28;20379;-79
2021/09/14 03:46:27;;;;;;;3.28;3.17;;;;;;;;;;5014789;28;20038;-79
2021/09/14 03:48:54;;;;;;;3.13;2.85;;;;;;;;;;5030140;28;20052;-79
2021/09/14 03:51:21;;;;;;;3.85;3.65;;;;;;;;;;5029501;28;20175;-79
2021/09/14 03:53:47;;;;;;;4.10;4.00;;;;;;;;;;5046712;28;20025;-79
2021/09/14 03:56:14;;;;;;;4.82;4.63;;;;;;;;;;5030403;28;20386;-79
2021/09/14 03:58:41;;;;;;;4.25;4.05;;;;;;;;;;5030100;28;20045;-79
2021/09/14 04:01:08;;;;;;;4.07;3.97;;;;;;;;;;5025107;28;20046;-79
2021/09/14 04:03:42;;;;;;;4.90;4.80;;;;;;;;;;5029388;28;20408;-79
2021/09/14 04:06:58;;;;;;;4.40;4.05;;;;;;;;;;5028685;28;20088;-79
2021/09/14 04:08:56;;;;;;;4.32;4.22;;;;;;;;;;5024691;28;20053;-79
2021/09/14 04:11:23;;;;;;;4.68;4.55;;;;;;;;;;5029927;28;20095;-80
2021/09/14 04:13:51;;;;;;;4.40;4.15;;;;;;;;;;5035021;28;20098;-80
2021/09/14 04:16:20;;;;;;;4.28;3.97;;;;;;;;;;5023136;28;20045;-79
2021/09/14 04:18:47;;;;;;;4.65;4.32;;;;;;;;;;5024535;28;20095;-79
2021/09/14 04:21:14;;;;;;;4.07;3.88;;;;;;;;;;5028840;28;20046;-79
2021/09/14 04:23:41;;;;;;;4.03;3.80;;;;;;;;;;5029787;28;20041;-80
2021/09/14 04:26:08;;;;;;;5.70;3.38;;;;;;;;;;5019365;28;20112;-79
2021/09/14 04:28:35;;;;;;;4.65;4.47;;;;;;;;;;5059368;28;20042;-79
2021/09/14 04:31:01;;;;;;;4.43;4.13;;;;;;;;;;5029980;28;20081;-79
2021/09/14 04:33:28;;;;;;;5.10;4.78;;;;;;;;;;5013473;28;20041;-81
2021/09/14 04:35:55;;;;;;;4.65;4.32;;;;;;;;;;5030526;28;20037;-81
2021/09/14 04:38:22;;;;;;;5.18;4.82;;;;;;;;;;5022310;28;20042;-81
2021/09/14 04:40:49;;;;;;;5.32;5.07;;;;;;;;;;5029640;28;20053;-80
2021/09/14 04:43:15;;;;;;;5.05;4.85;;;;;;;;;;5022924;28;20052;-80
2021/09/14 04:45:42;;;;;;;5.68;5.38;;;;;;;;;;5060565;28;20654;-79
2021/09/14 04:48:10;;;;;;;5.95;5.60;;;;;;;;;;5024290;28;20052;-79
2021/09/14 04:50:37;;;;;;;5.43;5.13;;;;;;;;;;5029454;28;20034;-79
2021/09/14 04:53:04;;;;;;;6.05;5.63;;;;;;;;;;5031923;28;20462;-80
2021/09/14 04:55:30;;;;;;;5.93;5.72;;;;;;;;;;5045190;28;20157;-80
2021/09/14 04:57:57;;;;;;;6.18;5.82;;;;;;;;;;5030289;28;20523;-80
2021/09/14 05:00:25;;;;;;;5.28;5.07;;;;;;;;;;5030532;28;20110;-80
2021/09/14 05:02:52;;;;;;;4.72;4.63;;;;;;;;;;5063265;28;20045;-80
2021/09/14 05:05:19;;;;;;;4.18;3.95;;;;;;;;;;5061945;28;20355;-80
2021/09/14 05:07:46;;;;;;;5.45;5.25;;;;;;;;;;5027650;28;20037;-80
2021/09/14 05:10:13;;;;;;;8.20;4.82;;;;;;;;;;5031281;28;20069;-80
2021/09/14 05:12:40;;;;;;;5.35;5.25;;;;;;;;;;5031411;28;20049;-80
2021/09/14 05:15:07;;;;;;;4.57;4.28;;;;;;;;;;5029576;28;20065;-80
2021/09/14 05:17:34;;;;;;;5.25;4.93;;;;;;;;;;5027212;28;20128;-80
2021/09/14 05:20:01;;;;;;;4.97;4.85;;;;;;;;;;5041088;28;20490;-80
2021/09/14 05:22:32;;;;;;;6.38;6.00;;;;;;;;;;5022217;28;20038;-80
2021/09/14 05:25:00;;;;;;;4.68;4.55;;;;;;;;;;5021877;28;20042;-80
2021/09/14 05:27:27;;;;;;;4.80;4.50;;;;;;;;;;5029912;28;20050;-80
2021/09/14 05:29:54;;;;;;;5.90;5.70;;;;;;;;;;5026241;28;20034;-80
2021/09/14 05:32:20;;;;;;;6.65;6.25;;;;;;;;;;5023889;28;20046;-80
2021/09/14 05:34:48;;;;;;;5.35;5.25;;;;;;;;;;5022840;28;20057;-80
2021/09/14 05:37:16;;;;;;;4.95;4.68;;;;;;;;;;5022270;28;20076;-80
2021/09/14 05:39:43;;;;;;;5.88;5.57;;;;;;;;;;5032490;28;20041;-80
2021/09/14 05:42:10;;;;;;;6.75;4.80;;;;;;;;;;5033866;28;20045;-80
2021/09/14 05:44:37;;;;;;;4.72;4.53;;;;;;;;;;5035461;28;20742;-80
2021/09/14 05:47:04;;;;;;;4.40;4.20;;;;;;;;;;5025664;28;20103;-80
2021/09/14 05:49:31;;;;;;;5.80;5.40;;;;;;;;;;5033230;28;20394;-80
2021/09/14 05:51:58;;;;;;;6.03;5.45;;;;;;;;;;5065532;28;20046;-80
2021/09/14 05:54:25;;;;;;;5.97;5.32;;;;;;;;;;5048261;28;20746;-80
2021/09/14 05:56:52;;;;;;;7.07;4.50;;;;;;;;;;5049406;28;20402;-80
2021/09/14 05:59:19;;;;;;;4.63;4.53;;;;;;;;;;5034799;28;20091;-80
2021/09/14 06:01:45;;;;;;;5.53;5.25;;;;;;;;;;5032060;28;20057;-80
2021/09/14 06:04:12;;;;;;;10.90;4.90;;;;;;;;;;5016287;28;20100;-80
2021/09/14 06:06:39;;;;;;;5.53;5.10;;;;;;;;;;5032674;28;20116;-80
2021/09/14 06:09:06;;;;;;;6.32;6.03;;;;;;;;;;5065648;28;20042;-80
2021/09/14 06:11:32;;;;;;;7.97;5.75;;;;;;;;;;5034183;28;20045;-80
2021/09/14 06:13:59;;;;;;;5.95;5.53;;;;;;;;;;5031956;28;20033;-80
2021/09/14 06:16:26;;;;;;;5.65;5.43;;;;;;;;;;5028142;28;20091;-80
2021/09/14 06:18:53;;;;;;;6.82;5.28;;;;;;;;;;5029989;28;20048;-80
2021/09/14 06:21:20;;;;;;;5.30;5.10;;;;;;;;;;5033847;28;20076;-80
2021/09/14 06:23:46;;;;;;;6.28;5.95;;;;;;;;;;5033764;28;20037;-80
2021/09/14 06:26:13;;;;;;;6.00;5.80;;;;;;;;;;5029312;28;20044;-80
2021/09/14 06:28:40;;;;;;;5.43;5.22;;;;;;;;;;5017984;28;20045;-80
2021/09/14 06:31:07;;;;;;;4.15;3.85;;;;;;;;;;5032306;28;20046;-80
2021/09/14 06:33:33;;;;;;;5.03;4.72;;;;;;;;;;5032941;28;20026;-80
2021/09/14 06:36:00;;;;;;;6.93;4.75;;;;;;;;;;5033669;28;20049;-80
2021/09/14 06:38:29;;;;;;;4.72;4.20;;;;;;;;;;5027407;28;20049;-80
2021/09/14 06:40:56;;;;;;;4.80;4.60;;;;;;;;;;5053733;28;20441;-80
2021/09/14 06:43:23;;;;;;;4.80;4.47;;;;;;;;;;5022309;28;20081;-80
2021/09/14 06:45:49;;;;;;;4.93;4.72;;;;;;;;;;5042667;28;20045;-79
2021/09/14 06:48:16;;;;;;;5.03;4.93;;;;;;;;;;5032581;28;20041;-79
2021/09/14 06:50:43;;;;;;;5.07;4.60;;;;;;;;;;5059525;28;20073;-79
2021/09/14 06:53:11;;;;;;;5.65;5.35;;;;;;;;;;5019624;28;20061;-79
2021/09/14 06:55:38;;;;;;;4.72;4.47;;;;;;;;;;5031177;28;20417;-80
2021/09/14 06:58:04;;;;;;;4.15;3.78;;;;;;;;;;5030471;28;20061;-80
2021/09/14 07:00:31;;;;;;;3.97;3.75;;;;;;;;;;5031654;28;20095;-80
2021/09/14 07:02:58;;;;;;;8.65;4.55;;;;;;;;;;5046067;28;20075;-79
2021/09/14 07:05:25;;;;;;;2.85;2.75;;;;;;;;;;5045988;28;20045;-79
2021/09/14 07:07:53;;;;;;;3.45;3.25;;;;;;;;;;5031848;28;20041;-79
2021/09/14 07:10:20;;;;;;;4.78;3.00;;;;;;;;;;5012730;28;20043;-79
2021/09/14 07:12:47;;;;;;;3.25;3.00;;;;;;;;;;5031574;28;20402;-79
2021/09/14 07:15:14;;;;;;;4.07;3.55;;;;;;;;;;5030281;28;20383;-79
2021/09/14 07:17:43;;;;;;;3.97;3.67;;;;;;;;;;5030368;28;20037;-79
2021/09/14 07:20:10;;;;;;;3.05;2.85;;;;;;;;;;5022596;28;20563;-79
2021/09/14 07:22:37;;;;;;;3.85;3.17;;;;;;;;;;5029344;28;20076;-79
2021/09/14 07:25:04;;;;;;;2.92;2.50;;;;;;;;;;5031499;28;20470;-79
2021/09/14 07:27:31;;;;;;;3.03;2.35;;;;;;;;;;5045255;28;20046;-79
2021/09/14 07:29:57;;;;;;;2.22;1.98;;;;;;;;;;5031682;28;20053;-79
2021/09/14 07:32:24;;;;;;;3.40;2.47;;;;;;;;;;5029301;28;20116;-79
2021/09/14 07:34:51;;;;;;;2.40;2.05;;;;;;;;;;5029613;28;20034;-79
2021/09/14 07:37:18;;;;;;;2.35;2.25;;;;;;;;;;5050788;28;20368;-79
2021/09/14 07:39:45;;;;;;;2.50;2.35;;;;;;;;;;5029686;28;20482;-79
2021/09/14 07:42:11;;;;;;;3.15;3.03;;;;;;;;;;5030259;28;20045;-79
2021/09/14 07:44:38;;;;;;;2.28;2.17;;;;;;;;;;5031862;28;20072;-79
2021/09/14 07:47:05;;;;;;;1.92;1.83;;;;;;;;;;5027523;28;20060;-79
2021/09/14 07:49:31;;;;;;;1.88;1.77;;;;;;;;;;5054977;28;20034;-79
2021/09/14 07:51:58;;;;;;;1.75;1.75;;;;;;;;;;5024469;28;20053;-79
2021/09/14 07:54:26;;;;;;;1.65;1.65;;;;;;;;;;5053673;28;20049;-79
2021/09/14 07:56:53;;;;;;;1.65;1.55;;;;;;;;;;5062879;28;20076;-79
2021/09/14 07:59:20;;;;;;;2.08;1.30;;;;;;;;;;5026248;28;20096;-79
2021/09/14 08:01:46;;;;;;;2.35;1.65;;;;;;;;;;5018261;28;20053;-79
2021/09/14 08:04:13;;;;;;;3.97;3.03;;;;;;;;;;5021803;28;20057;-79
2021/09/14 08:06:40;;;;;;;1.40;1.40;;;;;;;;;;5029505;28;20045;-79
2021/09/14 08:09:07;;;;;;;2.00;1.55;;;;;;;;;;5027603;28;20041;-79
2021/09/14 08:11:35;;;;;;;2.00;1.90;;;;;;;;;;5041110;28;20029;-79
2021/09/14 08:14:01;;;;;;;1.38;1.38;;;;;;;;;;5019644;28;20041;-79
2021/09/14 08:16:28;;;;;;;1.63;1.52;;;;;;;;;;5030294;28;20053;-79
2021/09/14 08:18:55;;;;;;;3.92;1.50;;;;;;;;;;5029841;28;20095;-79
2021/09/14 08:21:23;;;;;;;5.60;2.50;;;;;;;;;;5022177;28;20061;-79
2021/09/14 08:23:50;;;;;;;4.53;1.60;;;;;;;;;;5029870;28;20038;-79
2021/09/14 08:26:17;;;;;;;1.10;1.10;;;;;;;;;;5030639;28;20034;-79
2021/09/14 08:28:44;;;;;;;1.20;1.20;;;;;;;;;;5030494;28;20049;-79
2021/09/14 08:31:11;;;;;;;1.33;1.10;;;;;;;;;;5028623;28;20436;-79
2021/09/14 08:33:37;;;;;;;2.28;1.20;;;;;;;;;;5018110;28;20044;-79
2021/09/14 08:36:04;;;;;;;1.48;1.35;;;;;;;;;;5028836;28;20100;-79
2021/09/14 08:38:31;;;;;;;4.20;1.30;;;;;;;;;;5051360;28;20034;-79
2021/09/14 08:40:59;;;;;;;1.20;1.10;;;;;;;;;;5030992;28;20053;-79
2021/09/14 08:43:26;;;;;;;3.03;1.00;;;;;;;;;;5027119;28;20042;-79
2021/09/14 08:45:53;;;;;;;1.00;1.00;;;;;;;;;;5011349;28;20052;-79
2021/09/14 08:48:24;;;;;;;1.35;1.17;;;;;;;;;;5008632;28;20096;-79
2021/09/14 08:50:51;;;;;;;2.58;1.05;;;;;;;;;;5042366;28;20095;-79
2021/09/14 08:53:18;;;;;;;1.45;1.10;;;;;;;;;;5019202;28;20038;-79
2021/09/14 08:55:45;;;;;;;1.35;1.17;;;;;;;;;;5024892;28;20107;-79
2021/09/14 08:58:13;;;;;;;0.90;0.90;;;;;;;;;;5017659;28;20099;-79
2021/09/14 09:00:43;;;;;;;1.77;1.05;;;;;;;;;;5029509;28;20044;-79
2021/09/14 09:03:10;;;;;;;0.90;0.90;;;;;;;;;;5059245;28;20030;-79
2021/09/14 09:05:38;;;;;;;0.88;0.80;;;;;;;;;;5046249;28;20053;-79
2021/09/14 09:08:19;;;;;;;0.80;0.80;;;;;;;;;;5062173;28;20451;-79
2021/09/14 09:11:03;;;;;;;1.00;0.90;;;;;;;;;;5029809;28;20041;-80
2021/09/14 09:13:34;;;;;;;4.47;0.90;;;;;;;;;;5030705;28;20132;-80
2021/09/14 09:16:05;;;;;;;1.67;0.80;;;;;;;;;;5055092;28;20049;-80
2021/09/14 09:18:31;;;;;;;1.08;0.90;;;;;;;;;;5035414;28;20566;-80
2021/09/14 09:21:02;;;;;;;2.05;0.70;;;;;;;;;;5020388;28;20045;-80
2021/09/14 09:23:29;;;;;;;0.80;0.80;;;;;;;;;;5029708;28;20029;-80
2021/09/14 09:26:08;;;;;;;2.55;1.00;;;;;;;;;;5030931;28;20052;-80
2021/09/14 09:28:36;;;;;;;0.82;0.82;;;;;;;;;;5061525;28;20053;-80
2021/09/14 09:31:09;;;;;;;2.70;0.90;;;;;;;;;;5028931;28;20438;-80
2021/09/14 09:33:36;;;;;;;4.78;0.82;;;;;;;;;;5030072;28;20049;-80
2021/09/14 09:36:07;;;;;;;1.67;0.80;;;;;;;;;;5024015;28;20057;-80
2021/09/14 09:38:45;;;;;;;1.00;0.85;;;;;;;;;;5041605;28;20041;-80
2021/09/14 09:41:16;;;;;;;3.13;1.52;;;;;;;;;;5018416;28;20045;-80
2021/09/14 09:43:43;;;;;;;3.53;1.00;;;;;;;;;;5024707;28;20100;-80
2021/09/14 09:46:10;;;;;;;0.80;0.80;;;;;;;;;;5030158;28;20029;-80
2021/09/14 09:48:37;;;;;;;1.77;0.80;;;;;;;;;;5061655;28;20048;-81
2021/09/14 09:51:04;;;;;;;0.70;0.70;;;;;;;;;;5029206;28;20034;-81
2021/09/14 09:53:32;;;;;;;0.73;0.73;;;;;;;;;;5029683;28;20132;-81
2021/09/14 09:56:00;;;;;;;2.65;0.70;;;;;;;;;;5030065;28;20045;-80
2021/09/14 09:58:27;;;;;;;1.55;0.70;;;;;;;;;;5028414;28;20092;-80
2021/09/14 10:00:56;;;;;;;0.73;0.70;;;;;;;;;;5032532;28;20046;-80
2021/09/14 10:03:26;;;;;;;2.63;0.80;;;;;;;;;;5034298;28;20096;-80
2021/09/14 10:05:55;;;;;;;0.70;0.70;;;;;;;;;;5023737;28;20041;-80
2021/09/14 10:08:23;;;;;;;1.10;0.70;;;;;;;;;;5033596;28;20040;-80
2021/09/14 10:10:54;;;;;;;0.60;0.60;;;;;;;;;;5022657;28;20485;-80
2021/09/14 10:13:28;;;;;;;0.60;0.60;;;;;;;;;;5035053;28;20072;-80
2021/09/14 10:15:55;;;;;;;1.92;0.85;;;;;;;;;;5033978;28;20037;-80
2021/09/14 10:18:26;;;;;;;0.70;0.70;;;;;;;;;;5016581;28;20145;-80
2021/09/14 10:20:52;;;;;;;0.60;0.60;;;;;;;;;;5018411;28;20038;-80
2021/09/14 10:23:24;;;;;;;0.60;0.60;;;;;;;;;;5049663;28;20037;-80
2021/09/14 10:26:01;;;;;;;0.60;0.60;;;;;;;;;;5036262;28;20548;-81
2021/09/14 10:28:39;;;;;;;0.73;0.60;;;;;;;;;;5035524;28;20038;-81
2021/09/14 10:31:17;;;;;;;0.95;0.60;;;;;;;;;;5052991;28;20041;-81
2021/09/14 10:33:44;;;;;;;0.60;0.60;;;;;;;;;;5018428;28;20038;-81
2021/09/14 10:36:14;;;;;;;0.70;0.70;;;;;;;;;;5032986;28;20382;-81
2021/09/14 10:38:49;;;;;;;0.60;0.60;;;;;;;;;;5046681;28;20058;-81
2021/09/14 10:41:16;;;;;;;0.60;0.60;;;;;;;;;;5031359;28;20498;-81
2021/09/14 10:43:53;;;;;;;0.95;0.60;;;;;;;;;;5032297;28;20030;-80
2021/09/14 10:46:20;;;;;;;0.75;0.60;;;;;;;;;;5015177;28;20052;-80
2021/09/14 10:48:47;;;;;;;0.60;0.60;;;;;;;;;;5062960;28;20088;-80
2021/09/14 10:51:16;;;;;;;7.28;0.73;;;;;;;;;;5046521;28;20041;-80
2021/09/14 10:53:54;;;;;;;0.50;0.50;;;;;;;;;;5029157;28;20056;-80
2021/09/14 10:56:21;;;;;;;3.25;0.60;;;;;;;;;;5027553;28;20045;-80
2021/09/14 10:58:49;;;;;;;0.60;0.60;;;;;;;;;;5063871;28;20060;-80
2021/09/14 11:01:25;;;;;;;0.70;0.70;;;;;;;;;;5033164;28;20068;-80
2021/09/14 11:04:02;;;;;;;1.85;0.80;;;;;;;;;;5060600;28;20470;-80
2021/09/14 11:06:29;;;;;;;0.50;0.50;;;;;;;;;;5027359;28;20073;-81
2021/09/14 11:09:06;;;;;;;0.63;0.50;;;;;;;;;;5032151;28;20041;-81
2021/09/14 11:11:33;;;;;;;0.80;0.70;;;;;;;;;;5021287;28;20061;-81
2021/09/14 11:14:00;;;;;;;0.65;0.50;;;;;;;;;;5031664;28;20042;-81
2021/09/14 11:16:27;;;;;;;1.98;0.50;;;;;;;;;;5030012;28;20433;-81
2021/09/14 11:18:57;;;;;;;0.40;0.40;;;;;;;;;;5030811;28;20037;-81
2021/09/14 11:21:24;;;;;;;3.50;0.50;;;;;;;;;;5031099;28;20049;-81
2021/09/14 11:23:51;;;;;;;1.00;0.50;;;;;;;;;;5024906;28;20045;-81
2021/09/14 11:26:19;;;;;;;0.50;0.50;;;;;;;;;;5047681;28;20041;-81
2021/09/14 11:28:56;;;;;;;0.50;0.50;;;;;;;;;;5028057;28;20042;-81
2021/09/14 11:31:25;;;;;;;0.60;0.60;;;;;;;;;;5017670;28;20669;-81
2021/09/14 11:33:52;;;;;;;0.77;0.50;;;;;;;;;;5031054;28;20038;-81
2021/09/14 11:36:18;;;;;;;0.40;0.40;;;;;;;;;;5030232;28;20068;-81
2021/09/14 11:38:47;;;;;;;1.17;0.50;;;;;;;;;;5033357;28;20057;-81
2021/09/14 11:41:13;;;;;;;0.43;0.43;;;;;;;;;;5034467;28;20050;-81
2021/09/14 11:43:41;;;;;;;0.93;0.40;;;;;;;;;;5066061;28;20033;-81
2021/09/14 11:46:15;;;;;;;0.50;0.50;;;;;;;;;;5035985;28;20041;-81
2021/09/14 11:48:53;;;;;;;1.30;0.50;;;;;;;;;;5034055;28;20072;-81
2021/09/14 11:51:19;;;;;;;0.40;0.40;;;;;;;;;;5067079;28;20038;-81
2021/09/14 11:53:48;;;;;;;0.47;0.47;;;;;;;;;;5037676;28;20423;-81
2021/09/14 11:56:16;;;;;;;0.63;0.43;;;;;;;;;;5035345;28;20037;-81
2021/09/14 11:58:47;;;;;;;0.50;0.50;;;;;;;;;;5019398;28;20099;-81
2021/09/14 12:01:18;;;;;;;0.50;0.50;;;;;;;;;;5034955;28;20056;-81
2021/09/14 12:03:50;;;;;;;0.45;0.45;;;;;;;;;;5033869;28;20073;-81
2021/09/14 12:06:28;;;;;;;0.60;0.47;;;;;;;;;;5036778;28;20045;-81
2021/09/14 12:08:58;;;;;;;0.40;0.40;;;;;;;;;;5035560;28;21066;-80
2021/09/14 12:11:29;;;;;;;0.40;0.40;;;;;;;;;;5032457;28;20080;-80
2021/09/14 12:13:57;;;;;;;0.40;0.40;;;;;;;;;;5036814;28;20570;-80
2021/09/14 12:16:28;;;;;;;0.40;0.40;;;;;;;;;;5036409;28;20041;-81
2021/09/14 12:18:56;;;;;;;1.20;0.40;;;;;;;;;;5036737;28;20029;-81
2021/09/14 12:21:23;;;;;;;0.45;0.45;;;;;;;;;;5034105;28;20852;-81
2021/09/14 12:23:50;;;;;;;0.60;0.60;;;;;;;;;;5044463;28;20401;-80
2021/09/14 12:26:18;;;;;;;0.52;0.40;;;;;;;;;;5062601;28;20042;-80
2021/09/14 12:28:46;;;;;;;0.40;0.40;;;;;;;;;;5029299;28;20038;-80
2021/09/14 12:31:12;;;;;;;1.60;0.50;;;;;;;;;;5037454;28;20053;-80
2021/09/14 12:33:39;;;;;;;0.40;0.40;;;;;;;;;;5031525;28;20038;-81
2021/09/14 12:36:06;;;;;;;0.50;0.50;;;;;;;;;;5061710;28;20061;-81
2021/09/14 12:38:33;;;;;;;1.38;0.50;;;;;;;;;;5033561;28;20045;-81
2021/09/14 12:41:00;;;;;;;0.40;0.40;;;;;;;;;;5059697;28;20045;-81
2021/09/14 12:43:26;;;;;;;3.70;0.50;;;;;;;;;;5030600;28;20107;-81
2021/09/14 12:45:53;;;;;;;1.45;0.50;;;;;;;;;;5061386;28;20049;-81
2021/09/14 12:48:20;;;;;;;0.40;0.40;;;;;;;;;;5027601;28;20419;-81
2021/09/14 12:50:47;;;;;;;1.60;0.50;;;;;;;;;;5025843;28;20545;-81
2021/09/14 12:53:13;;;;;;;1.40;0.40;;;;;;;;;;5029859;28;20421;-81
2021/09/14 12:55:41;;;;;;;0.50;0.50;;;;;;;;;;5021646;28;20141;-81
2021/09/14 12:58:08;;;;;;;1.38;0.45;;;;;;;;;;5028601;28;20136;-81
2021/09/14 13:00:35;;;;;;;0.40;0.40;;;;;;;;;;5060824;28;20493;-81
2021/09/14 13:03:02;;;;;;;0.40;0.40;;;;;;;;;;5015223;28;20048;-81
2021/09/14 13:05:31;;;;;;;0.40;0.40;;;;;;;;;;5010367;28;20128;-81
2021/09/14 13:07:58;;;;;;;0.75;0.47;;;;;;;;;;5015306;28;20826;-81
2021/09/14 13:10:29;;;;;;;1.25;0.40;;;;;;;;;;5028161;28;20088;-81
2021/09/14 13:18:26;;;;;;;1.00;0.40;;;;;;;;;;5029960;28;20042;-81
2021/09/14 13:20:52;;;;;;;0.40;0.40;;;;;;;;;;5028523;28;20049;-81
2021/09/14 13:23:19;;;;;;;0.40;0.40;;;;;;;;;;5029434;28;20049;-81
2021/09/14 13:25:46;;;;;;;0.40;0.40;;;;;;;;;;5058975;28;20489;-81
2021/09/14 13:28:13;;;;;;;0.52;0.45;;;;;;;;;;5027247;28;20073;-81
2021/09/14 13:30:40;;;;;;;1.10;0.40;;;;;;;;;;5028591;28;20049;-81
2021/09/14 13:33:06;;;;;;;1.05;0.40;;;;;;;;;;5027924;28;20030;-81
2021/09/14 13:35:33;;;;;;;0.90;0.50;;;;;;;;;;5028124;28;20080;-81
2021/09/14 13:38:00;;;;;;;0.50;0.50;;;;;;;;;;5029162;28;20041;-81
2021/09/14 13:40:27;;;;;;;0.50;0.43;;;;;;;;;;5061939;28;20057;-81
2021/09/14 13:42:56;;;;;;;0.40;0.40;;;;;;;;;;5056825;28;20471;-81
2021/09/14 13:48:09;;;;;;;0.50;0.50;;;;;;;;;;5011563;28;20029;-81
2021/09/14 13:50:36;;;;;;;4.13;0.40;;;;;;;;;;5025237;28;20054;-81
2021/09/14 13:53:04;;;;;;;0.40;0.40;;;;;;;;;;5018311;28;20038;-81
2021/09/14 13:55:30;;;;;;;0.90;0.63;;;;;;;;;;5026665;28;20073;-81
2021/09/14 13:57:57;;;;;;;1.13;0.40;;;;;;;;;;5039880;28;20053;-81
2021/09/14 14:00:24;;;;;;;0.50;0.40;;;;;;;;;;5028532;28;20034;-81
2021/09/14 14:02:51;;;;;;;1.20;0.40;;;;;;;;;;5034294;28;20529;-81
2021/09/14 14:05:17;;;;;;;1.20;0.45;;;;;;;;;;5031784;28;20037;-81
2021/09/14 14:07:44;;;;;;;1.02;0.40;;;;;;;;;;5032168;28;20123;-81
2021/09/14 14:10:11;;;;;;;0.40;0.40;;;;;;;;;;5031736;28;20100;-81
2021/09/14 14:12:38;;;;;;;0.32;0.32;;;;;;;;;;5055315;28;20081;-81
2021/09/14 14:15:04;;;;;;;1.30;0.50;;;;;;;;;;5034089;28;20128;-81
2021/09/14 14:17:31;;;;;;;0.43;0.43;;;;;;;;;;5030503;28;20045;-81
2021/09/14 14:19:58;;;;;;;0.50;0.50;;;;;;;;;;5014707;28;20115;-81
2021/09/14 14:22:25;;;;;;;1.40;0.57;;;;;;;;;;5031052;28;20076;-81
2021/09/14 14:24:52;;;;;;;0.50;0.50;;;;;;;;;;5031841;28;20049;-81
2021/09/14 14:27:23;;;;;;;0.60;0.60;;;;;;;;;;5023654;28;20051;-81
2021/09/14 14:29:49;;;;;;;1.50;0.60;;;;;;;;;;5030299;28;20466;-81
2021/09/14 14:32:16;;;;;;;0.75;0.57;;;;;;;;;;5013130;28;20054;-81
2021/09/14 14:34:43;;;;;;;4.22;0.60;;;;;;;;;;5026239;28;20030;-81
2021/09/14 14:37:10;;;;;;;1.40;0.60;;;;;;;;;;5012751;28;20061;-81
2021/09/14 14:39:37;;;;;;;1.48;0.60;;;;;;;;;;5020491;28;20048;-81
2021/09/14 14:42:03;;;;;;;1.25;0.70;;;;;;;;;;5027365;28;20087;-81
2021/09/14 14:44:31;;;;;;;2.22;0.68;;;;;;;;;;5064489;28;20128;-81
2021/09/14 14:46:58;;;;;;;0.73;0.73;;;;;;;;;;5032242;28;20394;-81
2021/09/14 14:49:24;;;;;;;0.60;0.60;;;;;;;;;;5032556;28;20038;-81
2021/09/14 14:51:51;;;;;;;0.60;0.60;;;;;;;;;;5048552;28;20041;-81
2021/09/14 14:54:18;;;;;;;0.70;0.70;;;;;;;;;;5066426;28;20041;-81
2021/09/14 14:56:45;;;;;;;2.15;0.60;;;;;;;;;;5036589;28;20046;-81
2021/09/14 14:59:11;;;;;;;0.68;0.68;;;;;;;;;;5068523;28;20045;-81
2021/09/14 15:01:38;;;;;;;1.70;0.80;;;;;;;;;;5017778;28;20045;-81
2021/09/14 15:04:05;;;;;;;2.53;0.70;;;;;;;;;;5035146;28;20470;-81
2021/09/14 15:06:32;;;;;;;0.60;0.60;;;;;;;;;;5034838;28;20068;-81
2021/09/14 15:08:59;;;;;;;0.60;0.60;;;;;;;;;;5021746;28;20390;-81
2021/09/14 15:11:26;;;;;;;0.70;0.70;;;;;;;;;;5062333;28;20604;-81
2021/09/14 15:13:55;;;;;;;0.70;0.70;;;;;;;;;;5031282;28;20666;-81
2021/09/14 15:16:21;;;;;;;0.60;0.60;;;;;;;;;;5014574;28;20103;-81
2021/09/14 15:18:48;;;;;;;0.63;0.63;;;;;;;;;;5028272;28;20041;-81
2021/09/14 15:21:15;;;;;;;0.63;0.63;;;;;;;;;;5062508;28;20087;-81
2021/09/14 15:23:42;;;;;;;0.70;0.70;;;;;;;;;;5046400;28;20072;-81
2021/09/14 15:26:09;;;;;;;0.60;0.60;;;;;;;;;;5031353;28;20060;-81
2021/09/14 15:28:36;;;;;;;0.77;0.70;;;;;;;;;;5022819;28;20049;-81
2021/09/14 15:31:03;;;;;;;1.38;0.60;;;;;;;;;;5026382;28;20066;-81
2021/09/14 15:33:30;;;;;;;5.13;0.65;;;;;;;;;;5032064;28;20034;-81
2021/09/14 15:35:57;;;;;;;0.52;0.52;;;;;;;;;;5034951;28;20104;-81
2021/09/14 15:38:25;;;;;;;0.60;0.60;;;;;;;;;;5025391;28;20061;-81
2021/09/14 15:40:56;;;;;;;1.48;0.80;;;;;;;;;;5032031;28;20816;-81
2021/09/14 15:43:24;;;;;;;1.95;1.17;;;;;;;;;;5032319;28;20080;-80
2021/09/14 15:45:52;;;;;;;0.88;0.60;;;;;;;;;;5030325;28;20524;-80
2021/09/14 15:48:25;;;;;;;0.60;0.60;;;;;;;;;;5010244;28;20040;-80
2021/09/14 15:50:52;;;;;;;2.40;0.60;;;;;;;;;;5029168;28;20029;-80
2021/09/14 15:53:19;;;;;;;0.60;0.60;;;;;;;;;;5029249;28;20045;-80